Time;durP1;ratioP1;P1;durP2;ratioP2;P2;SDS_P1;SDS_P2;PMS_P1;PMS_P2;Temp;Humidity;BMP_temperature;BMP_pressure;BME280_temperature;BME280_humidity;BME280_pressure;Samples;Min_cycle;Max_cycle;Signal;HPM_P1;HPM_P2
2022/11/30 00:00:05;;;;;;;21.27;13.70;;;4.80;53.20;;;;;;5034377;28;20033;-75
2022/11/30 00:02:37;;;;;;;24.80;14.23;;;4.80;53.10;;;;;;5018069;28;20037;-75
2022/11/30 00:05:04;;;;;;;23.00;13.50;;;4.80;53.10;;;;;;5034725;28;20488;-75
2022/11/30 00:07:30;;;;;;;22.10;13.88;;;4.70;53.10;;;;;;5035626;28;20025;-74
2022/11/30 00:09:56;;;;;;;25.05;14.35;;;4.80;53.10;;;;;;5050236;28;20036;-75
2022/11/30 00:12:22;;;;;;;23.63;14.32;;;4.80;53.00;;;;;;5035528;28;20366;-76
2022/11/30 00:14:47;;;;;;;24.38;13.77;;;4.70;52.90;;;;;;5032769;28;20044;-74
2022/11/30 00:17:14;;;;;;;22.48;13.30;;;4.80;52.90;;;;;;5034730;28;20475;-75
2022/11/30 00:19:40;;;;;;;21.17;13.20;;;4.70;53.40;;;;;;5034961;28;20725;-74
2022/11/30 00:22:06;;;;;;;20.73;13.68;;;4.80;52.80;;;;;;5035448;28;20045;-75
2022/11/30 00:24:31;;;;;;;25.63;14.82;;;4.80;52.80;;;;;;5034356;28;20124;-76
2022/11/30 00:26:57;;;;;;;21.38;13.13;;;4.80;52.70;;;;;;5016580;28;20050;-76
2022/11/30 00:29:23;;;;;;;21.05;13.65;;;4.80;52.80;;;;;;5015139;28;20037;-76
2022/11/30 00:31:49;;;;;;;23.55;13.50;;;4.80;52.70;;;;;;5034970;28;20029;-75
2022/11/30 00:34:15;;;;;;;24.20;14.40;;;4.80;52.70;;;;;;5034983;28;20030;-75
2022/11/30 00:36:41;;;;;;;24.45;14.77;;;4.70;52.50;;;;;;5022074;28;20045;-75
2022/11/30 00:39:07;;;;;;;25.42;14.82;;;4.80;52.50;;;;;;5034068;28;21024;-74
2022/11/30 00:41:33;;;;;;;25.23;14.88;;;4.70;52.50;;;;;;5035086;28;20037;-75
2022/11/30 00:43:59;;;;;;;24.33;14.63;;;4.70;52.50;;;;;;5034339;28;20381;-74
2022/11/30 00:46:25;;;;;;;25.95;15.10;;;4.70;52.50;;;;;;5038648;28;20389;-75
2022/11/30 00:48:50;;;;;;;23.08;13.98;;;4.70;52.40;;;;;;5037949;28;20044;-74
2022/11/30 00:51:17;;;;;;;24.20;14.45;;;4.70;52.30;;;;;;5039230;28;20118;-75
2022/11/30 00:53:43;;;;;;;24.35;14.95;;;4.70;52.40;;;;;;5038010;28;20500;-74
2022/11/30 00:56:09;;;;;;;23.58;14.57;;;4.70;52.30;;;;;;5023585;28;20065;-74
2022/11/30 00:58:35;;;;;;;22.35;13.98;;;4.70;52.40;;;;;;5039338;28;20033;-74
2022/11/30 01:01:01;;;;;;;21.23;13.07;;;4.70;52.30;;;;;;5037469;28;20033;-75
2022/11/30 01:03:27;;;;;;;23.10;13.98;;;4.70;52.40;;;;;;5037962;28;20063;-74
2022/11/30 01:05:53;;;;;;;21.83;13.40;;;4.70;52.40;;;;;;5039316;28;20386;-75
2022/11/30 01:08:19;;;;;;;22.50;13.32;;;4.70;52.50;;;;;;5038069;28;20040;-75
2022/11/30 01:10:49;;;;;;;21.15;13.13;;;4.60;52.40;;;;;;5020400;28;20040;-75
2022/11/30 01:13:15;;;;;;;21.92;13.32;;;4.70;52.50;;;;;;5038901;28;20037;-75
2022/11/30 01:15:42;;;;;;;22.55;14.32;;;4.60;52.40;;;;;;5036863;28;20042;-75
2022/11/30 01:18:09;;;;;;;20.17;12.65;;;4.60;52.40;;;;;;5019400;28;20033;-75
2022/11/30 01:20:38;;;;;;;21.80;12.85;;;4.60;52.30;;;;;;5019516;28;20501;-75
2022/11/30 01:23:04;;;;;;;21.25;12.75;;;4.60;52.40;;;;;;5037826;28;20041;-76
2022/11/30 01:25:30;;;;;;;22.95;13.10;;;4.60;52.30;;;;;;5019871;28;20075;-75
2022/11/30 01:27:55;;;;;;;22.80;13.57;;;4.60;52.30;;;;;;5038384;28;20144;-76
2022/11/30 01:30:21;;;;;;;21.15;13.07;;;4.60;52.20;;;;;;5001640;28;20065;-74
2022/11/30 01:32:47;;;;;;;20.30;12.57;;;4.60;52.30;;;;;;5035137;28;20879;-76
2022/11/30 01:35:13;;;;;;;24.55;12.93;;;4.60;52.20;;;;;;5035543;28;20591;-74
2022/11/30 01:37:39;;;;;;;22.20;13.52;;;4.60;52.20;;;;;;5019481;28;20039;-75
2022/11/30 01:40:06;;;;;;;22.30;12.70;;;4.60;52.10;;;;;;5035349;28;20040;-75
2022/11/30 01:42:32;;;;;;;20.80;12.55;;;4.60;52.10;;;;;;5036416;28;20404;-75
2022/11/30 01:44:59;;;;;;;23.25;12.68;;;4.60;52.10;;;;;;5035947;28;20040;-75
2022/11/30 01:47:38;;;;;;;23.10;13.73;;;4.60;52.00;;;;;;4994363;28;20037;-75
2022/11/30 01:50:28;;;;;;;22.25;13.13;;;4.70;51.90;;;;;;5023182;28;20034;-74
2022/11/30 01:52:56;;;;;;;23.02;13.27;;;4.60;51.80;;;;;;5035146;28;20492;-75
2022/11/30 01:55:43;;;;;;;23.27;12.80;;;4.60;51.70;;;;;;5034223;28;20045;-75
2022/11/30 01:58:14;;;;;;;25.13;13.55;;;4.70;51.70;;;;;;5019918;28;21425;-74
2022/11/30 02:00:44;;;;;;;23.67;13.63;;;4.60;51.50;;;;;;5036761;28;20033;-75
2022/11/30 02:03:41;;;;;;;21.30;12.88;;;4.60;51.50;;;;;;5035475;28;20128;-75
2022/11/30 02:06:07;;;;;;;18.65;11.65;;;4.60;51.60;;;;;;5002927;28;20119;-73
2022/11/30 02:08:33;;;;;;;23.38;13.25;;;4.60;51.60;;;;;;5036679;28;20033;-74
2022/11/30 02:11:03;;;;;;;22.60;13.40;;;4.60;51.70;;;;;;5018138;28;20061;-74
2022/11/30 02:13:49;;;;;;;25.58;13.43;;;4.60;51.70;;;;;;5036574;28;20026;-74
2022/11/30 02:16:34;;;;;;;;;;;4.60;51.80;;;;;;5036855;28;20500;-74
2022/11/30 02:19:20;;;;;;;25.55;12.93;;;4.60;51.80;;;;;;5054558;28;19921;-74
2022/11/30 02:21:57;;;;;;;21.77;12.98;;;4.60;51.90;;;;;;5039190;28;20090;-74
2022/11/30 02:24:42;;;;;;;21.02;12.55;;;4.60;51.90;;;;;;5035261;28;20036;-74
2022/11/30 02:27:38;;;;;;;20.33;12.77;;;4.60;51.90;;;;;;5052223;28;20037;-74
2022/11/30 02:30:08;;;;;;;22.73;13.57;;;4.60;51.90;;;;;;5035659;28;20063;-75
2022/11/30 02:32:37;;;;;;;24.15;13.75;;;4.60;51.80;;;;;;5036451;28;20041;-74
2022/11/30 02:35:06;;;;;;;25.60;14.85;;;4.60;51.80;;;;;;5015794;28;20028;-74
2022/11/30 02:37:34;;;;;;;21.83;13.15;;;4.60;51.90;;;;;;5019003;28;20613;-75
2022/11/30 02:40:00;;;;;;;23.90;13.90;;;4.60;51.90;;;;;;5036187;28;20584;-75
2022/11/30 02:42:25;;;;;;;23.25;15.50;;;4.60;52.50;;;;;;5018118;28;20120;-75
2022/11/30 02:44:53;;;;;;;23.23;14.52;;;4.60;51.90;;;;;;5015752;28;20036;-75
2022/11/30 02:48:04;;;;;;;23.58;15.07;;;4.50;51.80;;;;;;5017208;28;20034;-75
2022/11/30 02:50:38;;;;;;;25.17;15.57;;;4.50;51.80;;;;;;4979686;28;20050;-74
2022/11/30 02:53:07;;;;;;;24.33;15.50;;;4.50;51.90;;;;;;4978943;28;20780;-75
2022/11/30 02:55:33;;;;;;;24.90;15.95;;;4.60;51.90;;;;;;4979570;28;20416;-75
2022/11/30 02:57:59;;;;;;;27.23;15.57;;;4.50;51.80;;;;;;4980856;28;20041;-75
2022/11/30 03:00:24;;;;;;;24.85;15.05;;;4.60;51.80;;;;;;4961469;28;20042;-75
2022/11/30 03:02:50;;;;;;;24.55;15.43;;;4.60;51.80;;;;;;4960001;28;20053;-74
2022/11/30 03:05:16;;;;;;;23.33;15.10;;;4.60;51.80;;;;;;4943990;28;20060;-75
2022/11/30 03:07:42;;;;;;;20.98;14.48;;;4.60;51.80;;;;;;4979111;28;20066;-75
2022/11/30 03:10:09;;;;;;;24.52;14.25;;;4.60;51.90;;;;;;4979947;28;20112;-74
2022/11/30 03:12:35;;;;;;;24.80;14.32;;;4.60;51.80;;;;;;4963401;28;20041;-75
2022/11/30 03:15:01;;;;;;;20.98;13.60;;;4.60;51.80;;;;;;4944144;28;20035;-74
2022/11/30 03:17:27;;;;;;;21.70;13.40;;;4.70;51.90;;;;;;4958843;28;20562;-75
2022/11/30 03:19:52;;;;;;;21.48;12.88;;;4.70;51.80;;;;;;4939513;28;20125;-73
2022/11/30 03:22:19;;;;;;;20.27;13.18;;;4.70;51.80;;;;;;4960210;28;20038;-74
2022/11/30 03:24:45;;;;;;;21.00;12.25;;;4.70;51.70;;;;;;5005377;28;20060;-74
2022/11/30 03:27:11;;;;;;;20.88;12.68;;;4.70;51.60;;;;;;5016687;28;20037;-74
2022/11/30 03:29:38;;;;;;;22.63;13.00;;;4.70;51.60;;;;;;5035978;28;20132;-74
2022/11/30 03:32:04;;;;;;;21.40;13.07;;;4.70;51.60;;;;;;5035059;28;20510;-76
2022/11/30 03:34:30;;;;;;;23.67;13.13;;;4.70;51.50;;;;;;5035173;28;20033;-74
2022/11/30 03:36:56;;;;;;;17.63;12.27;;;4.60;51.40;;;;;;5034624;28;20081;-74
2022/11/30 03:39:23;;;;;;;19.58;12.07;;;4.70;51.40;;;;;;5016449;28;20127;-75
2022/11/30 03:41:49;;;;;;;20.90;12.35;;;4.60;51.40;;;;;;5049964;28;20464;-75
2022/11/30 03:44:15;;;;;;;18.40;12.13;;;4.60;51.30;;;;;;5035473;28;20061;-76
2022/11/30 03:46:41;;;;;;;23.38;13.20;;;4.60;51.30;;;;;;5035161;28;20485;-75
2022/11/30 03:49:07;;;;;;;21.13;12.38;;;4.60;51.30;;;;;;5035462;28;20041;-74
2022/11/30 03:51:33;;;;;;;19.75;11.85;;;4.60;51.40;;;;;;5035046;28;20430;-75
2022/11/30 03:54:00;;;;;;;21.45;12.55;;;4.60;51.40;;;;;;5034292;28;20492;-75
2022/11/30 03:56:26;;;;;;;18.35;11.48;;;4.60;51.40;;;;;;5016596;28;20044;-76
2022/11/30 03:58:52;;;;;;;20.65;11.98;;;4.60;51.40;;;;;;5034652;28;20048;-75
2022/11/30 04:01:22;;;;;;;19.63;11.32;;;4.60;51.30;;;;;;5033994;28;20036;-76
2022/11/30 04:03:51;;;;;;;18.05;11.70;;;4.60;51.30;;;;;;5035692;28;20037;-76
2022/11/30 04:06:19;;;;;;;20.95;11.95;;;4.60;51.30;;;;;;5016856;28;20076;-76
2022/11/30 04:08:45;;;;;;;21.98;13.00;;;4.60;51.30;;;;;;5032470;28;20048;-76
2022/11/30 04:11:11;;;;;;;19.38;12.18;;;4.60;51.70;;;;;;5017489;28;20037;-76
2022/11/30 04:13:38;;;;;;;21.58;11.95;;;4.60;51.10;;;;;;5035380;28;20079;-75
2022/11/30 04:16:06;;;;;;;21.58;12.15;;;4.60;51.10;;;;;;5034094;28;20029;-74
2022/11/30 04:18:33;;;;;;;21.48;13.18;;;4.50;51.00;;;;;;5035066;28;20555;-75
2022/11/30 04:21:00;;;;;;;20.00;12.57;;;4.60;51.10;;;;;;5037861;28;20624;-74
2022/11/30 04:23:30;;;;;;;22.35;12.25;;;4.60;51.10;;;;;;5019844;28;20064;-74
2022/11/30 04:25:56;;;;;;;20.00;12.55;;;4.60;51.10;;;;;;5024768;28;20029;-75
2022/11/30 04:28:22;;;;;;;18.30;11.48;;;4.60;51.10;;;;;;5021364;28;20037;-75
2022/11/30 04:30:48;;;;;;;20.73;11.80;;;4.70;51.10;;;;;;5036842;28;20030;-76
2022/11/30 04:33:15;;;;;;;22.25;12.73;;;4.60;51.10;;;;;;4985862;28;20114;-75
2022/11/30 04:35:45;;;;;;;19.67;11.77;;;4.70;51.20;;;;;;5037280;28;20065;-75
2022/11/30 04:38:11;;;;;;;22.05;12.20;;;4.60;51.20;;;;;;5053169;28;20044;-76
2022/11/30 04:40:44;;;;;;;20.88;12.32;;;4.70;51.20;;;;;;5053748;28;20174;-75
2022/11/30 04:43:11;;;;;;;19.45;11.80;;;4.60;51.10;;;;;;5038621;28;20100;-74
2022/11/30 04:45:37;;;;;;;19.38;12.13;;;4.60;51.10;;;;;;5039162;28;20060;-74
2022/11/30 04:48:04;;;;;;;22.83;12.90;;;4.70;51.10;;;;;;5024526;28;20034;-75
2022/11/30 04:50:31;;;;;;;20.55;11.82;;;4.60;51.00;;;;;;5019078;28;20057;-75
2022/11/30 04:52:57;;;;;;;20.55;12.38;;;4.60;51.00;;;;;;5007598;28;20439;-75
2022/11/30 04:55:23;;;;;;;20.73;12.15;;;4.60;50.90;;;;;;5038763;28;20037;-75
2022/11/30 04:57:49;;;;;;;23.05;12.13;;;4.70;51.00;;;;;;5037705;28;20044;-75
2022/11/30 05:00:17;;;;;;;22.23;13.30;;;4.60;50.90;;;;;;5037109;28;20040;-75
2022/11/30 05:02:43;;;;;;;23.00;13.07;;;4.60;50.80;;;;;;5037191;28;20049;-75
2022/11/30 05:05:10;;;;;;;22.40;12.95;;;4.70;50.90;;;;;;5035839;28;20132;-76
2022/11/30 05:07:36;;;;;;;23.70;13.98;;;4.60;50.80;;;;;;5024705;28;20647;-75
2022/11/30 05:10:04;;;;;;;20.75;13.55;;;4.70;50.80;;;;;;5036913;28;20075;-74
2022/11/30 05:12:30;;;;;;;21.80;14.07;;;4.60;50.70;;;;;;5037391;28;20037;-75
2022/11/30 05:14:56;;;;;;;23.23;13.93;;;4.60;50.70;;;;;;5052323;28;20026;-75
2022/11/30 05:17:22;;;;;;;25.35;14.15;;;4.60;50.70;;;;;;5036796;28;20500;-75
2022/11/30 05:19:48;;;;;;;25.25;14.20;;;4.60;50.60;;;;;;5037156;28;20124;-75
2022/11/30 05:22:14;;;;;;;27.65;14.80;;;4.60;50.70;;;;;;5004481;28;20112;-75
2022/11/30 05:24:39;;;;;;;25.77;14.13;;;4.60;50.60;;;;;;5017568;28;20064;-74
2022/11/30 05:27:06;;;;;;;27.98;14.60;;;4.60;50.60;;;;;;5038083;28;20064;-74
2022/11/30 05:29:33;;;;;;;22.70;12.90;;;4.60;50.70;;;;;;5051690;28;20093;-75
2022/11/30 05:32:00;;;;;;;23.77;13.52;;;4.60;50.60;;;;;;5036986;28;20065;-74
2022/11/30 05:34:26;;;;;;;22.23;13.48;;;4.60;50.60;;;;;;5034223;28;20045;-75
2022/11/30 05:36:52;;;;;;;21.33;13.52;;;4.60;50.60;;;;;;5037042;28;20049;-75
2022/11/30 05:39:18;;;;;;;22.50;13.07;;;4.70;50.60;;;;;;5037195;28;20032;-76
2022/11/30 05:41:44;;;;;;;22.20;12.82;;;4.70;50.60;;;;;;5037913;28;20061;-76
2022/11/30 05:44:10;;;;;;;25.27;12.35;;;4.70;50.50;;;;;;5037088;28;20041;-74
2022/11/30 05:46:36;;;;;;;22.13;13.05;;;4.70;50.50;;;;;;5019942;28;20103;-76
2022/11/30 05:49:03;;;;;;;20.30;12.32;;;4.70;50.50;;;;;;5024255;28;20092;-77
2022/11/30 05:51:32;;;;;;;23.05;12.13;;;4.70;51.30;;;;;;5038788;28;20033;-78
2022/11/30 05:53:58;;;;;;;19.58;11.13;;;4.80;52.60;;;;;;5021952;28;20036;-75
2022/11/30 05:56:24;;;;;;;20.20;12.23;;;4.90;54.10;;;;;;5037989;28;20446;-76
2022/11/30 05:58:50;;;;;;;21.80;11.88;;;4.90;55.20;;;;;;5019517;28;20445;-71
2022/11/30 06:01:24;;;;;;;20.42;11.70;;;4.90;57.20;;;;;;5036863;28;20057;-72
2022/11/30 06:03:50;;;;;;;19.88;10.80;;;5.00;60.10;;;;;;5036306;28;20606;-77
2022/11/30 06:06:16;;;;;;;15.68;10.05;;;5.20;61.10;;;;;;5038451;28;20081;-75
2022/11/30 06:08:43;;;;;;;17.17;9.98;;;5.40;60.10;;;;;;5035923;28;20060;-76
2022/11/30 06:11:09;;;;;;;14.43;9.80;;;5.50;59.50;;;;;;5043992;28;20037;-76
2022/11/30 06:13:35;;;;;;;19.88;12.18;;;5.60;58.70;;;;;;5052482;28;20830;-75
2022/11/30 06:16:03;;;;;;;19.13;11.68;;;5.70;58.00;;;;;;5041993;28;20037;-76
2022/11/30 06:18:29;;;;;;;21.27;11.55;;;5.80;57.60;;;;;;5040821;28;20092;-75
2022/11/30 06:21:00;;;;;;;22.25;12.57;;;5.80;57.10;;;;;;5018399;28;20038;-76
2022/11/30 06:23:26;;;;;;;18.35;11.07;;;5.90;56.80;;;;;;5030025;28;20577;-75
2022/11/30 06:25:52;;;;;;;19.15;11.50;;;5.90;56.60;;;;;;5033600;28;20030;-76
2022/11/30 06:28:18;;;;;;;17.75;11.27;;;6.00;56.30;;;;;;5043511;28;20464;-76
2022/11/30 06:30:43;;;;;;;16.23;10.77;;;6.00;56.10;;;;;;5044245;28;20427;-77
2022/11/30 06:33:09;;;;;;;17.85;10.85;;;6.10;56.10;;;;;;5023440;28;20095;-76
2022/11/30 06:35:35;;;;;;;17.55;11.05;;;6.10;56.00;;;;;;5032669;28;20045;-77
2022/11/30 06:38:01;;;;;;;18.58;10.90;;;6.20;56.00;;;;;;5036646;28;20041;-77
2022/11/30 06:40:27;;;;;;;17.38;11.52;;;6.20;55.80;;;;;;5045047;28;20025;-77
2022/11/30 06:42:53;;;;;;;17.50;10.77;;;6.20;55.70;;;;;;5011471;28;20033;-76
2022/11/30 06:45:19;;;;;;;19.65;11.48;;;6.30;55.70;;;;;;5045971;28;20133;-76
2022/11/30 06:47:45;;;;;;;17.45;11.00;;;6.30;55.60;;;;;;5040478;28;20102;-75
2022/11/30 06:50:13;;;;;;;17.83;11.30;;;6.40;55.50;;;;;;5060755;28;20483;-76
2022/11/30 06:52:38;;;;;;;15.57;10.25;;;6.40;55.40;;;;;;5047615;28;20029;-76
2022/11/30 06:55:05;;;;;;;19.73;11.07;;;6.40;55.40;;;;;;5059107;28;20047;-77
2022/11/30 06:57:31;;;;;;;17.63;10.80;;;6.50;55.40;;;;;;5056681;28;20091;-77
2022/11/30 06:59:57;;;;;;;16.83;11.27;;;6.50;55.70;;;;;;5025823;28;20041;-75
2022/11/30 07:02:23;;;;;;;20.92;11.48;;;6.60;55.70;;;;;;5040871;28;20532;-76
2022/11/30 07:04:49;;;;;;;21.30;11.80;;;6.60;55.70;;;;;;5051767;28;20523;-77
2022/11/30 07:07:15;;;;;;;19.85;12.00;;;6.60;55.70;;;;;;5044599;28;20040;-77
2022/11/30 07:09:41;;;;;;;19.75;11.65;;;6.70;55.70;;;;;;5031299;28;20126;-77
2022/11/30 07:12:07;;;;;;;19.75;11.75;;;6.70;56.00;;;;;;5041938;28;20037;-77
2022/11/30 07:14:33;;;;;;;21.40;11.50;;;6.70;56.00;;;;;;5009798;28;20057;-76
2022/11/30 07:17:03;;;;;;;19.98;12.10;;;6.80;56.00;;;;;;5017476;28;20091;-76
2022/11/30 07:19:30;;;;;;;20.67;12.07;;;6.80;55.90;;;;;;5016432;28;20758;-76
2022/11/30 07:21:56;;;;;;;21.23;11.95;;;6.80;56.00;;;;;;5037488;28;20038;-76
2022/11/30 07:27:07;;;;;;;21.55;12.68;;;6.90;56.10;;;;;;5035291;28;20041;-76
2022/11/30 07:29:33;;;;;;;19.30;11.35;;;6.90;56.10;;;;;;5016552;28;20056;-76
2022/11/30 07:31:58;;;;;;;19.35;11.40;;;7.00;56.30;;;;;;5035294;28;20524;-76
2022/11/30 07:34:25;;;;;;;18.02;11.60;;;7.00;56.30;;;;;;5033953;28;20388;-76
2022/11/30 07:36:50;;;;;;;19.23;10.57;;;7.00;56.30;;;;;;5016554;28;20554;-76
2022/11/30 07:39:18;;;;;;;21.92;11.25;;;7.10;56.50;;;;;;5017438;28;20037;-76
2022/11/30 07:41:43;;;;;;;17.85;10.73;;;7.10;56.30;;;;;;5036247;28;20037;-77
2022/11/30 07:44:10;;;;;;;18.45;11.30;;;7.10;56.40;;;;;;5015683;28;20211;-76
2022/11/30 07:46:37;;;;;;;18.05;10.82;;;7.20;56.50;;;;;;5034800;28;20358;-77
2022/11/30 07:49:08;;;;;;;19.90;11.05;;;7.20;56.40;;;;;;5035574;28;20362;-78
2022/11/30 07:51:34;;;;;;;17.42;10.60;;;7.20;56.30;;;;;;5002038;28;20041;-78
2022/11/30 07:54:00;;;;;;;17.15;11.07;;;7.30;56.40;;;;;;5025285;28;20075;-77
2022/11/30 07:56:27;;;;;;;20.92;11.90;;;7.30;56.40;;;;;;5015717;28;20496;-77
2022/11/30 07:58:59;;;;;;;15.95;10.05;;;7.40;56.60;;;;;;5035908;28;20033;-78
2022/11/30 08:01:31;;;;;;;15.02;9.85;;;7.40;56.70;;;;;;5036156;28;20721;-75
2022/11/30 08:03:57;;;;;;;15.88;9.73;;;7.40;57.00;;;;;;5056808;28;20049;-76
2022/11/30 08:06:28;;;;;;;17.98;9.90;;;7.50;57.00;;;;;;5041637;28;20488;-77
2022/11/30 08:08:57;;;;;;;14.45;9.77;;;7.50;56.80;;;;;;5035151;28;20044;-78
2022/11/30 08:11:26;;;;;;;15.85;10.20;;;7.50;56.70;;;;;;5033021;28;20032;-77
2022/11/30 08:13:53;;;;;;;19.80;11.13;;;7.60;56.00;;;;;;5024245;28;20120;-77
2022/11/30 08:16:22;;;;;;;21.25;10.57;;;7.60;55.50;;;;;;5033687;28;20570;-79
2022/11/30 08:18:49;;;;;;;18.38;10.40;;;7.60;55.20;;;;;;5050427;28;20044;-77
2022/11/30 08:21:17;;;;;;;19.67;11.55;;;7.60;55.00;;;;;;5004976;28;20048;-76
2022/11/30 08:23:45;;;;;;;16.55;10.60;;;7.60;54.70;;;;;;5034248;28;20629;-77
2022/11/30 08:26:20;;;;;;;18.40;10.48;;;7.60;54.60;;;;;;5049287;28;20366;-77
2022/11/30 08:28:48;;;;;;;17.05;10.63;;;7.60;54.50;;;;;;5034694;28;20037;-75
2022/11/30 08:31:18;;;;;;;19.80;11.35;;;7.60;54.30;;;;;;5034966;28;20132;-76
2022/11/30 08:33:45;;;;;;;17.23;10.23;;;7.70;54.20;;;;;;5015660;28;20033;-76
2022/11/30 08:36:16;;;;;;;18.08;11.35;;;7.70;54.20;;;;;;5034579;28;20075;-78
2022/11/30 08:38:44;;;;;;;20.30;10.68;;;7.70;54.00;;;;;;5033480;28;20486;-79
2022/11/30 08:41:12;;;;;;;20.23;11.18;;;7.70;54.00;;;;;;5033857;28;20033;-77
2022/11/30 08:43:38;;;;;;;18.15;10.95;;;7.70;54.00;;;;;;5016248;28;20084;-78
2022/11/30 08:46:06;;;;;;;17.88;10.43;;;7.70;53.90;;;;;;5017920;28;21371;-80
2022/11/30 08:48:33;;;;;;;18.50;10.52;;;7.80;54.00;;;;;;5025482;28;20033;-79
2022/11/30 08:51:08;;;;;;;20.55;12.05;;;7.80;54.50;;;;;;5019912;28;20539;-78
2022/11/30 08:53:35;;;;;;;19.48;11.10;;;7.80;53.90;;;;;;4985060;28;20037;-78
2022/11/30 08:56:04;;;;;;;21.05;11.68;;;7.80;53.90;;;;;;5004603;28;20372;-78
2022/11/30 08:58:33;;;;;;;21.60;12.60;;;7.80;53.90;;;;;;5035170;28;20075;-79
2022/11/30 09:01:12;;;;;;;23.73;12.13;;;7.80;53.90;;;;;;5033696;28;20064;-80
2022/11/30 09:03:42;;;;;;;20.83;12.52;;;7.80;53.90;;;;;;5034129;28;20037;-78
2022/11/30 09:06:11;;;;;;;22.83;12.45;;;7.80;53.90;;;;;;5035409;28;20484;-75
2022/11/30 09:08:37;;;;;;;21.60;12.35;;;7.90;54.00;;;;;;5052395;28;20056;-76
2022/11/30 09:11:28;;;;;;;23.98;12.40;;;7.90;54.00;;;;;;5019172;28;20029;-77
2022/11/30 09:19:09;;;;;;;21.70;13.10;;;7.90;54.20;;;;;;4924358;29;20064;-76
2022/11/30 09:22:22;;;;;;;25.17;12.80;;;8.00;54.30;;;;;;4887945;29;20047;-75
2022/11/30 09:25:05;;;;;;;24.55;13.40;;;7.90;54.20;;;;;;4923477;29;20551;-78
2022/11/30 09:27:37;;;;;;;25.35;13.57;;;8.00;54.20;;;;;;4937673;29;20509;-79
2022/11/30 09:31:05;;;;;;;22.02;13.30;;;8.00;54.20;;;;;;4881907;29;20040;-78
2022/11/30 09:33:37;;;;;;;22.67;13.45;;;8.00;54.30;;;;;;4937964;29;20035;-80
2022/11/30 09:53:09;;;;;;;;;;;;;;;;;;;;;
2022/11/30 10:05:36;;;;;;;24.42;14.05;;;7.90;54.20;;;;;;4828832;29;20053;-81
2022/11/30 10:27:01;;;;;;;24.58;14.18;;;7.80;54.40;;;;;;4760481;29;20139;-80
2022/11/30 10:40:47;;;;;;;24.77;12.82;;;7.80;54.50;;;;;;5084146;27;20433;-77
2022/11/30 10:43:40;;;;;;;22.70;12.77;;;7.90;55.60;;;;;;5020521;28;20042;-78
2022/11/30 10:46:20;;;;;;;21.38;12.63;;;7.90;55.60;;;;;;5005370;28;20048;-77
2022/11/30 10:49:09;;;;;;;22.70;12.52;;;7.90;55.50;;;;;;5009672;28;20082;-77
2022/11/30 10:51:38;;;;;;;20.75;12.07;;;7.80;55.50;;;;;;4990131;28;20069;-78
2022/11/30 10:54:14;;;;;;;19.95;12.18;;;7.80;55.50;;;;;;4997266;28;20034;-77
2022/11/30 10:56:40;;;;;;;16.90;12.07;;;7.90;55.50;;;;;;4996463;28;20512;-76
2022/11/30 10:59:11;;;;;;;19.35;11.80;;;7.80;55.50;;;;;;5026955;28;20037;-76
2022/11/30 11:01:39;;;;;;;19.88;11.88;;;7.80;55.50;;;;;;5017773;28;20065;-77
2022/11/30 11:04:12;;;;;;;18.25;11.60;;;7.80;55.50;;;;;;4974815;28;20421;-77
2022/11/30 11:06:56;;;;;;;22.60;12.45;;;7.80;55.60;;;;;;5004282;28;20133;-76
2022/11/30 11:09:45;;;;;;;19.08;11.60;;;7.80;55.70;;;;;;5000376;28;20057;-77
2022/11/30 11:12:24;;;;;;;18.30;12.30;;;7.90;55.80;;;;;;4990631;28;20044;-79
2022/11/30 11:15:23;;;;;;;19.75;12.98;;;7.80;56.00;;;;;;5001571;28;20453;-75
2022/11/30 11:17:51;;;;;;;21.83;11.90;;;7.80;56.30;;;;;;5002140;28;20105;-76
2022/11/30 11:20:27;;;;;;;20.90;11.63;;;7.80;56.40;;;;;;5001998;28;20091;-78
2022/11/30 11:22:53;;;;;;;20.55;12.70;;;7.80;56.50;;;;;;4999994;28;20033;-78
2022/11/30 11:25:31;;;;;;;20.45;13.00;;;7.80;56.60;;;;;;5002550;28;20049;-78
2022/11/30 11:28:07;;;;;;;22.55;12.85;;;7.80;56.50;;;;;;5008643;28;20108;-79
2022/11/30 11:30:35;;;;;;;22.77;12.70;;;7.80;56.50;;;;;;5002554;28;20034;-80
2022/11/30 11:33:10;;;;;;;22.70;12.98;;;7.80;56.60;;;;;;4970050;28;20153;-79
2022/11/30 11:35:40;;;;;;;22.48;13.73;;;7.80;56.50;;;;;;4997092;28;20035;-77
2022/11/30 11:38:44;;;;;;;23.02;13.57;;;7.80;56.50;;;;;;5000991;28;20038;-77
2022/11/30 11:41:34;;;;;;;21.08;12.95;;;7.80;56.50;;;;;;4969921;28;20047;-82
2022/11/30 11:44:09;;;;;;;22.73;13.75;;;7.80;57.20;;;;;;4990961;28;20038;-80
2022/11/30 11:46:51;;;;;;;23.70;13.55;;;7.80;56.50;;;;;;4987673;28;20041;-82
2022/11/30 11:49:22;;;;;;;22.40;13.50;;;7.80;56.50;;;;;;4998649;28;21137;-82
2022/11/30 11:51:59;;;;;;;23.85;12.82;;;7.80;56.60;;;;;;4996182;28;20035;-79
2022/11/30 11:54:38;;;;;;;23.02;13.27;;;7.80;56.50;;;;;;4974836;28;21039;-83
2022/11/30 11:57:09;;;;;;;21.33;13.23;;;7.80;56.60;;;;;;4968826;28;20030;-83
2022/11/30 11:59:48;;;;;;;24.00;13.55;;;7.80;56.60;;;;;;4989528;28;20042;-83
2022/11/30 12:02:32;;;;;;;24.15;13.43;;;7.80;56.70;;;;;;4974473;28;20030;-85
2022/11/30 12:05:30;;;;;;;27.38;14.27;;;7.80;56.70;;;;;;4954012;28;20038;-85
2022/11/30 12:08:17;;;;;;;25.08;13.55;;;7.80;56.90;;;;;;4957698;28;20038;-86
2022/11/30 12:10:51;;;;;;;26.02;14.95;;;7.80;57.00;;;;;;5000358;28;20406;-84
2022/11/30 12:13:38;;;;;;;22.30;14.15;;;7.80;57.30;;;;;;5008268;28;20101;-84
2022/11/30 12:16:10;;;;;;;23.15;14.30;;;7.70;57.60;;;;;;5014012;28;20015;-84
2022/11/30 12:18:54;;;;;;;24.08;14.23;;;7.70;57.90;;;;;;5001064;28;20038;-82
2022/11/30 12:21:32;;;;;;;22.98;13.02;;;7.70;58.10;;;;;;4976741;28;20038;-80
2022/11/30 12:24:12;;;;;;;24.38;13.65;;;7.70;58.30;;;;;;4977382;28;20038;-81
2022/11/30 12:26:52;;;;;;;28.73;14.85;;;7.70;58.30;;;;;;4983756;28;20034;-81
2022/11/30 12:29:21;;;;;;;19.45;12.73;;;7.70;58.50;;;;;;4986660;28;20082;-80
2022/11/30 12:31:49;;;;;;;22.23;13.30;;;7.70;58.80;;;;;;4986594;28;20474;-80
2022/11/30 12:34:28;;;;;;;24.15;15.55;;;7.70;58.80;;;;;;5005475;28;20516;-80
2022/11/30 12:37:00;;;;;;;26.10;14.32;;;7.70;58.90;;;;;;4991177;28;20038;-81
2022/11/30 12:39:54;;;;;;;23.67;14.63;;;7.70;59.10;;;;;;4991178;28;20145;-81
2022/11/30 12:42:33;;;;;;;24.85;15.05;;;7.70;59.30;;;;;;4996217;28;20066;-81
2022/11/30 12:45:02;;;;;;;23.08;14.02;;;7.60;59.30;;;;;;4996736;28;20030;-84
2022/11/30 12:47:48;;;;;;;22.85;14.57;;;7.70;60.20;;;;;;4987448;28;20514;-83
2022/11/30 12:50:42;;;;;;;22.52;14.43;;;7.70;59.60;;;;;;4982427;28;20042;-83
2022/11/30 12:53:31;;;;;;;27.58;15.43;;;7.70;60.00;;;;;;4970056;28;20457;-83
2022/11/30 12:56:36;;;;;;;24.67;15.38;;;7.70;60.00;;;;;;4987580;28;20213;-85
2022/11/30 12:59:08;;;;;;;23.17;14.38;;;7.70;60.00;;;;;;4954490;28;20038;-85
2022/11/30 13:02:06;;;;;;;27.60;15.23;;;7.60;60.00;;;;;;4950070;28;20031;-84
2022/11/30 13:04:52;;;;;;;21.35;13.98;;;7.70;60.10;;;;;;4949755;28;20034;-83
2022/11/30 13:07:18;;;;;;;22.13;14.43;;;7.60;60.00;;;;;;4986009;28;21158;-83
2022/11/30 13:10:07;;;;;;;22.05;14.02;;;7.60;59.90;;;;;;4970876;28;20080;-83
2022/11/30 13:12:37;;;;;;;26.25;14.88;;;7.60;60.00;;;;;;4983112;28;20038;-83
2022/11/30 13:15:15;;;;;;;25.98;14.63;;;7.60;59.90;;;;;;4954682;28;20398;-84
2022/11/30 13:17:42;;;;;;;22.00;13.75;;;7.60;60.10;;;;;;4986327;28;20039;-84
2022/11/30 13:20:41;;;;;;;21.70;13.43;;;7.60;59.90;;;;;;4969081;28;20077;-83
2022/11/30 13:23:30;;;;;;;21.77;13.75;;;7.60;60.10;;;;;;4968430;28;20681;-83
2022/11/30 13:26:17;;;;;;;20.38;13.43;;;7.60;59.90;;;;;;4985779;28;20355;-78
2022/11/30 13:29:04;;;;;;;20.88;13.98;;;7.60;60.00;;;;;;4987638;28;20461;-85
2022/11/30 13:31:49;;;;;;;19.92;13.50;;;7.60;60.20;;;;;;4972379;28;20042;-86
2022/11/30 13:34:24;;;;;;;23.00;14.43;;;7.60;60.20;;;;;;4984085;28;20034;-86
2022/11/30 13:36:50;;;;;;;23.43;13.50;;;7.60;60.40;;;;;;4959564;28;20046;-87
2022/11/30 13:39:22;;;;;;;21.77;14.05;;;7.50;60.30;;;;;;4971108;28;20536;-85
2022/11/30 13:42:01;;;;;;;21.27;13.48;;;7.60;60.20;;;;;;4978310;28;20077;-84
2022/11/30 13:44:31;;;;;;;23.98;14.60;;;7.50;60.00;;;;;;4985225;28;20061;-88
2022/11/30 13:46:58;;;;;;;21.15;14.35;;;7.50;60.00;;;;;;4980719;28;20026;-88
2022/11/30 13:49:35;;;;;;;21.80;12.77;;;7.50;60.00;;;;;;4954643;28;20038;-85
2022/11/30 13:52:04;;;;;;;21.42;13.70;;;7.50;59.90;;;;;;4985755;28;20125;-89
2022/11/30 13:54:57;;;;;;;21.00;14.07;;;7.50;59.60;;;;;;4981784;28;20034;-86
2022/11/30 13:57:29;;;;;;;20.92;13.82;;;7.50;59.50;;;;;;4992260;28;20046;-86
2022/11/30 13:59:59;;;;;;;21.63;13.65;;;7.50;59.40;;;;;;4969324;28;20034;-85
2022/11/30 14:02:32;;;;;;;23.58;13.07;;;7.50;59.30;;;;;;4985747;28;20045;-86